Time;durP1;ratioP1;P1;durP2;ratioP2;P2;SDS_P1;SDS_P2;PMS_P1;PMS_P2;Temp;Humidity;BMP_temperature;BMP_pressure;BME280_temperature;BME280_humidity;BME280_pressure;Samples;Min_cycle;Max_cycle;Signal;HPM_P1;HPM_P2
2022/04/14 00:00:58;;;;;;;60.03;36.05;;;;;;;11.51;82.85;101919.13;5020158;28;20046;-68
2022/04/14 00:03:25;;;;;;;63.05;37.78;;;;;;;11.49;83.27;101913.03;5028318;28;20038;-69
2022/04/14 00:05:52;;;;;;;63.40;37.05;;;;;;;11.48;83.11;101908.63;5025974;28;20784;-68
2022/04/14 00:08:21;;;;;;;75.25;41.38;;;;;;;11.45;83.44;101908.69;5027537;28;20046;-69
2022/04/14 00:10:48;;;;;;;68.35;38.60;;;;;;;11.43;83.46;101907.81;5031784;28;20122;-68
2022/04/14 00:13:16;;;;;;;61.10;35.22;;;;;;;11.41;83.51;101901.69;5028172;28;20157;-68
2022/04/14 00:15:44;;;;;;;65.80;37.58;;;;;;;11.38;83.53;101896.47;5023386;28;20057;-69
2022/04/14 00:18:11;;;;;;;56.22;35.35;;;;;;;11.32;83.45;101900.97;5027070;28;20042;-68
2022/04/14 00:20:38;;;;;;;58.83;36.45;;;;;;;11.28;83.36;101901.03;5030238;28;20046;-70
2022/04/14 00:23:05;;;;;;;59.65;35.95;;;;;;;11.23;83.52;101900.25;5021542;28;20050;-69
2022/04/14 00:25:32;;;;;;;62.10;36.17;;;;;;;11.18;83.46;101892.41;5031858;28;20044;-70
2022/04/14 00:27:59;;;;;;;59.70;34.28;;;;;;;11.14;83.67;101891.56;5029532;28;20499;-70
2022/04/14 00:30:27;;;;;;;61.22;35.47;;;;;;;11.11;83.53;101890.75;5031260;28;20546;-70
2022/04/14 00:32:54;;;;;;;61.30;35.70;;;;;;;11.07;83.69;101895.19;5024626;28;20562;-71
2022/04/14 00:35:21;;;;;;;65.75;38.42;;;;;;;11.05;83.77;101891.69;5031547;28;20483;-71
2022/04/14 00:37:48;;;;;;;67.72;38.85;;;;;;;11.01;83.84;101890.88;5029870;28;20045;-71
2022/04/14 00:40:15;;;;;;;67.90;38.25;;;;;;;11.01;84.05;101890.03;5031015;28;20093;-72
2022/04/14 00:42:42;;;;;;;79.30;40.20;;;;;;;11.00;83.89;101890.91;5030927;28;20117;-72
2022/04/14 00:45:11;;;;;;;61.33;35.85;;;;;;;10.99;83.90;101890.03;5030595;28;20583;-71
2022/04/14 00:47:39;;;;;;;63.92;36.75;;;;;;;10.98;84.13;101888.31;5029390;28;20042;-69
2022/04/14 00:50:07;;;;;;;63.00;38.33;;;;;;;10.97;84.18;101886.56;5030615;28;20046;-69
2022/04/14 00:52:34;;;;;;;63.30;37.47;;;;;;;10.97;84.29;101886.56;5029951;28;20045;-68
2022/04/14 00:55:01;;;;;;;77.82;40.03;;;;;;;10.97;84.11;101891.84;5028103;28;20050;-69
2022/04/14 00:57:28;;;;;;;67.32;37.50;;;;;;;10.97;84.15;101896.22;5023034;28;20490;-67
2022/04/14 00:59:55;;;;;;;70.60;38.95;;;;;;;10.96;84.16;101887.47;5030800;28;20033;-66
2022/04/14 01:02:22;;;;;;;64.45;38.42;;;;;;;10.96;84.01;101891.84;5023060;28;20046;-67
2022/04/14 01:04:50;;;;;;;57.55;34.90;;;;;;;10.93;84.13;101895.41;5029866;28;20074;-67
2022/04/14 01:07:18;;;;;;;61.67;35.95;;;;;;;10.92;84.22;101891.03;5029535;28;20057;-69
2022/04/14 01:09:46;;;;;;;61.42;37.00;;;;;;;10.91;84.18;101894.56;5030201;28;20479;-70
2022/04/14 01:12:16;;;;;;;61.10;36.00;;;;;;;10.91;84.22;101891.91;5026196;28;20512;-71
2022/04/14 01:14:43;;;;;;;73.43;39.20;;;;;;;10.90;84.11;101887.53;5027785;28;20468;-67
2022/04/14 01:17:10;;;;;;;65.75;38.15;;;;;;;10.88;84.40;101887.56;5028820;28;20038;-68
2022/04/14 01:19:39;;;;;;;64.82;37.67;;;;;;;10.88;84.31;101892.00;5028076;28;20034;-68
2022/04/14 01:22:24;;;;;;;61.28;36.13;;;;;;;10.86;84.30;101892.00;5029743;28;20105;-67
2022/04/14 01:25:01;;;;;;;64.75;35.38;;;;;;;10.84;84.20;101888.50;5030132;28;20445;-69
2022/04/14 01:27:29;;;;;;;65.28;36.70;;;;;;;10.82;84.24;101885.03;5021903;28;20038;-70
2022/04/14 01:29:56;;;;;;;73.18;39.45;;;;;;;10.80;84.18;101886.81;5031340;28;20108;-68
2022/04/14 01:32:24;;;;;;;60.47;35.63;;;;;;;10.80;84.49;101886.81;5026940;28;20052;-69
2022/04/14 01:34:51;;;;;;;68.18;37.88;;;;;;;10.79;84.42;101882.44;5030115;28;20049;-69
2022/04/14 01:37:19;;;;;;;69.03;37.90;;;;;;;10.78;84.46;101885.09;5027552;28;20048;-68
2022/04/14 01:39:46;;;;;;;57.38;34.50;;;;;;;10.76;84.57;101885.09;5026087;28;20034;-69
2022/04/14 01:42:13;;;;;;;61.92;36.72;;;;;;;10.74;84.26;101886.88;5025269;28;20512;-70
2022/04/14 01:44:40;;;;;;;65.75;37.45;;;;;;;10.71;84.25;101887.81;5029024;28;20047;-70
2022/04/14 01:47:07;;;;;;;66.05;35.85;;;;;;;10.70;84.40;101893.13;5028343;28;20496;-70
2022/04/14 01:49:35;;;;;;;68.00;36.15;;;;;;;10.68;84.57;101890.47;5028427;28;20496;-70
2022/04/14 01:52:02;;;;;;;65.05;37.03;;;;;;;10.68;84.47;101894.91;5025881;28;20487;-70
2022/04/14 01:54:29;;;;;;;68.35;37.38;;;;;;;10.66;84.47;101892.28;5018578;28;20045;-71
2022/04/14 01:56:56;;;;;;;64.63;36.65;;;;;;;10.65;84.61;101900.19;5028381;28;20042;-70
2022/04/14 01:59:23;;;;;;;64.15;35.70;;;;;;;10.63;84.57;101897.59;5029709;28;20041;-71
2022/04/14 02:01:50;;;;;;;64.55;35.20;;;;;;;10.60;84.44;101902.91;5024725;28;20068;-69
2022/04/14 02:04:17;;;;;;;54.75;32.97;;;;;;;10.58;84.61;101899.44;5028280;28;20046;-69
2022/04/14 02:06:44;;;;;;;58.95;35.78;;;;;;;10.56;84.62;101902.06;5027933;28;20045;-68
2022/04/14 02:09:12;;;;;;;58.75;34.92;;;;;;;10.53;84.71;101896.84;5023251;28;20042;-70
2022/04/14 02:11:39;;;;;;;63.92;35.53;;;;;;;10.52;84.75;101894.22;5028369;28;20046;-69
2022/04/14 02:14:06;;;;;;;63.95;36.40;;;;;;;10.50;84.68;101891.63;5025694;28;20117;-69
2022/04/14 02:16:33;;;;;;;59.38;34.95;;;;;;;10.48;84.66;101893.41;5026052;28;20423;-69
2022/04/14 02:19:01;;;;;;;65.50;35.33;;;;;;;10.45;84.73;101885.53;5020497;28;20081;-68
2022/04/14 02:21:28;;;;;;;66.70;36.53;;;;;;;10.43;84.80;101892.56;5027854;28;20082;-68
2022/04/14 02:23:55;;;;;;;60.35;34.30;;;;;;;10.42;84.91;101893.50;5028069;28;20038;-67
2022/04/14 02:26:22;;;;;;;57.08;34.40;;;;;;;10.41;85.08;101895.25;5028777;28;20088;-67
2022/04/14 02:28:49;;;;;;;70.18;37.10;;;;;;;10.40;85.08;101897.91;5030235;28;20041;-70
2022/04/14 02:31:16;;;;;;;68.13;35.90;;;;;;;10.39;85.07;101898.78;5027706;28;20046;-69
2022/04/14 02:33:44;;;;;;;58.95;32.92;;;;;;;10.36;85.04;101899.69;5026262;28;20153;-70
2022/04/14 02:36:11;;;;;;;62.05;34.53;;;;;;;10.34;85.08;101901.47;5029887;28;20042;-69
2022/04/14 02:38:39;;;;;;;57.53;32.92;;;;;;;10.32;85.05;101900.59;5021716;28;20042;-70
2022/04/14 02:41:06;;;;;;;63.42;34.67;;;;;;;10.31;85.30;101900.63;5027568;28;20503;-67
2022/04/14 02:43:37;;;;;;;64.65;34.25;;;;;;;10.30;85.23;101902.38;5029526;28;20500;-68
2022/04/14 02:46:05;;;;;;;53.97;31.30;;;;;;;10.31;85.10;101905.91;5028266;28;20169;-68
2022/04/14 02:48:32;;;;;;;52.30;32.40;;;;;;;10.29;85.18;101905.91;5027756;28;20490;-67
2022/04/14 02:51:00;;;;;;;57.88;33.67;;;;;;;10.27;85.21;101907.69;5028052;28;20034;-68
2022/04/14 02:53:27;;;;;;;58.88;31.98;;;;;;;10.25;85.38;101905.06;5030760;28;20145;-68
2022/04/14 02:55:54;;;;;;;56.80;33.42;;;;;;;10.24;85.34;101905.94;5033434;28;20485;-68
2022/04/14 02:58:21;;;;;;;49.75;31.45;;;;;;;10.22;85.16;101899.84;5030010;28;20050;-69
2022/04/14 03:00:49;;;;;;;57.42;30.65;;;;;;;10.21;85.22;101902.50;5031094;28;20045;-68
2022/04/14 03:03:18;;;;;;;54.83;31.77;;;;;;;10.18;85.33;101906.03;5032531;28;20092;-68
2022/04/14 03:05:45;;;;;;;55.08;32.65;;;;;;;10.17;85.49;101913.97;5026712;28;20048;-69
2022/04/14 03:08:12;;;;;;;57.38;29.73;;;;;;;10.14;85.51;101914.84;5030937;28;20443;-69
2022/04/14 03:10:39;;;;;;;63.88;33.10;;;;;;;10.13;85.49;101918.38;5030153;28;20054;-69
2022/04/14 03:13:06;;;;;;;54.63;31.85;;;;;;;10.12;85.54;101919.28;5030496;28;20045;-69
2022/04/14 03:15:33;;;;;;;51.20;31.80;;;;;;;10.09;85.47;101914.91;5030909;28;20088;-67
2022/04/14 03:18:00;;;;;;;47.78;29.40;;;;;;;10.07;85.59;101911.41;5033899;28;20045;-71
2022/04/14 03:20:27;;;;;;;50.95;30.02;;;;;;;10.07;85.68;101905.28;5026083;28;20517;-71
2022/04/14 03:22:57;;;;;;;46.55;29.80;;;;;;;10.06;85.71;101911.44;5028279;28;20038;-70
2022/04/14 03:25:25;;;;;;;50.92;30.48;;;;;;;10.04;85.69;101903.56;5032119;28;20050;-70
2022/04/14 03:27:52;;;;;;;49.35;30.27;;;;;;;10.05;85.85;101899.16;5031622;28;20120;-70
2022/04/14 03:30:19;;;;;;;61.95;33.30;;;;;;;10.04;85.86;101906.19;5031232;28;20044;-68
2022/04/14 03:32:48;;;;;;;84.47;38.65;;;;;;;10.09;86.13;101904.38;5031149;28;20132;-69
2022/04/14 03:35:16;;;;;;;71.32;36.85;;;;;;;10.14;86.39;101909.59;5029657;28;20038;-70
2022/04/14 03:37:43;;;;;;;65.85;33.95;;;;;;;10.17;86.14;101909.56;5032338;28;20053;-70
2022/04/14 03:40:12;;;;;;;60.25;33.80;;;;;;;10.22;86.17;101912.13;5028939;28;20052;-70
2022/04/14 03:42:39;;;;;;;70.80;36.05;;;;;;;10.24;86.23;101919.13;5025329;28;20042;-70
2022/04/14 03:45:07;;;;;;;56.25;33.10;;;;;;;10.29;86.34;101919.06;5027872;28;20049;-70
2022/04/14 03:47:35;;;;;;;63.45;33.10;;;;;;;10.31;86.20;101905.91;5031982;28;20042;-70
2022/04/14 03:50:04;;;;;;;65.65;33.75;;;;;;;10.31;86.05;101905.91;5032641;28;20045;-71
2022/04/14 03:52:32;;;;;;;90.03;36.08;;;;;;;10.31;86.13;101906.75;5036502;28;20053;-70
2022/04/14 03:54:59;;;;;;;62.47;34.08;;;;;;;10.29;85.87;101908.53;5035472;28;20097;-70
2022/04/14 03:57:26;;;;;;;83.85;36.97;;;;;;;10.29;85.95;101915.59;5035956;28;20046;-69
2022/04/14 03:59:53;;;;;;;73.38;35.30;;;;;;;10.30;86.01;101920.81;5035762;28;20042;-69
2022/04/14 04:02:20;;;;;;;60.38;34.17;;;;;;;10.31;85.90;101919.94;5031077;28;20576;-69
2022/04/14 04:04:48;;;;;;;87.65;37.15;;;;;;;10.33;86.04;101906.72;5031563;28;20042;-69
2022/04/14 04:07:16;;;;;;;76.38;36.88;;;;;;;10.37;85.92;101913.72;5032060;28;20041;-70
2022/04/14 04:09:43;;;;;;;70.15;36.22;;;;;;;10.40;85.97;101911.94;5032600;28;20041;-70
2022/04/14 04:12:10;;;;;;;107.63;39.17;;;;;;;10.41;86.27;101908.41;5030778;28;20557;-70
2022/04/14 04:14:37;;;;;;;106.43;39.88;;;;;;;10.45;86.09;101916.31;5026333;28;20046;-70
2022/04/14 04:17:04;;;;;;;80.95;38.10;;;;;;;10.46;86.10;101915.41;5031746;28;20049;-71
2022/04/14 04:19:32;;;;;;;69.13;36.30;;;;;;;10.47;85.84;101919.78;5030301;28;20038;-71
2022/04/14 04:21:59;;;;;;;351.48;48.95;;;;;;;10.49;86.14;101925.91;5030601;28;20034;-70
2022/04/14 04:24:26;;;;;;;92.32;40.33;;;;;;;10.51;86.30;101918.84;5031863;28;20113;-71
2022/04/14 04:26:53;;;;;;;321.65;47.65;;;;;;;10.52;86.16;101928.50;5031915;28;21004;-70
2022/04/14 04:29:20;;;;;;;434.55;51.42;;;;;;;10.51;86.23;101917.09;5030967;28;20049;-70
2022/04/14 04:31:47;;;;;;;623.45;61.03;;;;;;;10.51;86.83;101925.00;5029894;28;20506;-70
2022/04/14 04:34:15;;;;;;;244.27;43.60;;;;;;;10.49;86.26;101936.44;5029766;28;20524;-68
2022/04/14 04:36:42;;;;;;;1008.63;76.00;;;;;;;10.49;86.75;101932.06;5025938;28;20053;-70
2022/04/14 04:39:09;;;;;;;934.72;71.80;;;;;;;10.48;87.12;101932.94;5018765;28;20050;-67
2022/04/14 04:41:37;;;;;;;184.63;45.33;;;;;;;10.47;87.21;101946.16;5020269;28;20448;-69
2022/04/14 04:44:05;;;;;;;269.17;43.58;;;;;;;10.48;87.16;101935.59;5024505;28;20038;-71
2022/04/14 04:46:32;;;;;;;130.98;42.38;;;;;;;10.50;87.12;101941.72;5027622;28;20037;-70
2022/04/14 04:48:59;;;;;;;304.02;41.10;;;;;;;10.55;87.18;101945.16;5031145;28;20042;-69
2022/04/14 04:51:27;;;;;;;115.47;41.35;;;;;;;10.59;87.04;101948.63;5024082;28;20039;-69
2022/04/14 04:53:55;;;;;;;235.95;44.42;;;;;;;10.64;86.89;101943.28;5028684;28;20486;-68
2022/04/14 04:56:22;;;;;;;124.40;39.72;;;;;;;10.68;86.91;101945.00;5020440;28;20065;-67
2022/04/14 04:58:49;;;;;;;126.97;40.38;;;;;;;10.73;87.21;101951.09;5025041;28;20061;-70
2022/04/14 05:01:16;;;;;;;130.20;38.97;;;;;;;10.79;86.95;101945.75;5023267;28;20049;-70
2022/04/14 05:03:43;;;;;;;216.32;45.05;;;;;;;10.85;86.95;101947.41;5022697;28;20888;-69
2022/04/14 05:06:11;;;;;;;206.40;40.78;;;;;;;10.88;86.64;101950.88;5024723;28;20504;-69
2022/04/14 05:08:38;;;;;;;215.65;39.22;;;;;;;10.88;86.69;101950.03;5018900;28;20042;-70
2022/04/14 05:11:08;;;;;;;156.48;37.53;;;;;;;10.86;86.51;101963.22;5031270;28;20093;-69
2022/04/14 05:13:35;;;;;;;151.35;39.83;;;;;;;10.87;86.29;101967.59;5024057;28;20045;-69
2022/04/14 05:16:06;;;;;;;133.38;37.83;;;;;;;10.86;86.62;101955.31;5038672;28;20049;-69
2022/04/14 05:18:33;;;;;;;288.98;39.10;;;;;;;10.88;86.74;101956.16;5023308;28;20104;-69
2022/04/14 05:21:00;;;;;;;395.23;43.35;;;;;;;10.88;86.55;101965.84;5040385;28;20057;-69
2022/04/14 05:23:28;;;;;;;408.80;44.90;;;;;;;10.84;86.69;101957.09;5025394;28;20609;-69
2022/04/14 05:25:56;;;;;;;108.38;37.75;;;;;;;10.82;86.38;101961.53;5022123;28;20038;-71
2022/04/14 05:28:23;;;;;;;206.18;41.00;;;;;;;10.84;86.42;101970.28;5029968;28;20934;-70
2022/04/14 05:30:50;;;;;;;143.88;39.35;;;;;;;10.89;86.37;101959.66;5022142;28;20042;-71
2022/04/14 05:33:18;;;;;;;122.07;36.45;;;;;;;10.90;86.23;101964.03;5028147;28;20928;-69
2022/04/14 05:35:45;;;;;;;167.43;37.35;;;;;;;10.90;85.95;101968.47;5023389;28;20034;-69
2022/04/14 05:38:12;;;;;;;95.60;34.40;;;;;;;10.90;85.94;101971.09;5023001;28;20125;-70
2022/04/14 05:40:41;;;;;;;119.97;36.80;;;;;;;10.87;85.98;101978.16;5024332;28;20042;-70
2022/04/14 05:43:20;;;;;;;87.50;33.13;;;;;;;10.86;85.64;101973.78;5029622;28;20073;-69
2022/04/14 05:45:48;;;;;;;93.55;35.13;;;;;;;10.83;85.95;101968.56;5020053;28;20046;-69
2022/04/14 05:48:17;;;;;;;70.30;32.65;;;;;;;10.82;85.68;101974.72;5023536;28;20080;-70
2022/04/14 05:50:47;;;;;;;132.35;32.83;;;;;;;10.81;85.71;101969.44;5030915;28;20050;-69
2022/04/14 05:53:14;;;;;;;72.07;33.47;;;;;;;10.78;85.51;101974.78;5039941;28;20045;-71
2022/04/14 05:55:41;;;;;;;174.18;33.40;;;;;;;10.76;85.75;101973.94;5030567;28;20045;-71
2022/04/14 05:58:08;;;;;;;71.85;32.72;;;;;;;10.75;85.50;101982.72;5030014;28;20038;-69
2022/04/14 06:00:36;;;;;;;280.75;37.45;;;;;;;10.73;85.73;101998.59;5030780;28;20042;-70
2022/04/14 06:03:04;;;;;;;93.43;32.75;;;;;;;10.70;85.70;101998.59;5030414;28;20046;-71
2022/04/14 06:05:34;;;;;;;186.73;37.92;;;;;;;10.75;85.68;101994.13;5034182;28;20041;-70
2022/04/14 06:08:01;;;;;;;262.25;38.55;;;;;;;10.83;85.81;101996.69;5028598;28;20252;-70
2022/04/14 06:10:29;;;;;;;286.58;35.95;;;;;;;10.87;85.59;102003.69;5029901;28;20058;-70
2022/04/14 06:12:56;;;;;;;225.38;31.60;;;;;;;10.95;85.09;102009.72;5031044;28;20046;-70
2022/04/14 06:15:26;;;;;;;103.03;30.52;;;;;;;11.09;84.73;102004.25;5030628;28;20058;-70
2022/04/14 06:17:53;;;;;;;85.72;31.05;;;;;;;11.24;84.50;102000.53;5029179;28;20053;-71
2022/04/14 06:20:21;;;;;;;89.43;30.73;;;;;;;11.43;84.02;102002.88;5023648;28;20046;-70
2022/04/14 06:22:49;;;;;;;101.00;30.67;;;;;;;11.60;83.46;102008.75;5031030;28;20042;-71
2022/04/14 06:25:22;;;;;;;64.03;31.45;;;;;;;11.73;83.15;102009.47;5030447;28;20069;-69
2022/04/14 06:27:51;;;;;;;73.85;29.80;;;;;;;11.89;83.16;102003.91;5034592;28;20037;-70
2022/04/14 06:30:19;;;;;;;134.07;30.85;;;;;;;11.93;82.68;102005.59;5033621;28;20041;-70
2022/04/14 06:33:04;;;;;;;55.42;28.30;;;;;;;11.94;82.23;102002.91;5034910;28;20038;-70
2022/04/14 06:35:33;;;;;;;68.43;27.80;;;;;;;12.00;82.20;102007.25;5019377;28;20408;-71
2022/04/14 06:38:00;;;;;;;68.15;29.20;;;;;;;12.13;82.13;102004.41;5014414;28;20046;-70
2022/04/14 06:40:28;;;;;;;43.70;27.05;;;;;;;12.22;81.73;102002.44;5014642;28;20050;-70
2022/04/14 06:42:59;;;;;;;58.22;26.73;;;;;;;12.25;81.02;102005.03;5014522;28;20046;-70
2022/04/14 06:45:28;;;;;;;48.38;27.75;;;;;;;12.23;80.73;102000.69;5014515;28;20039;-69
2022/04/14 06:47:55;;;;;;;42.08;25.75;;;;;;;12.20;80.21;102004.28;5014480;28;20483;-70
2022/04/14 06:50:23;;;;;;;45.78;28.27;;;;;;;12.25;80.13;102005.03;5027978;28;20041;-70
2022/04/14 06:52:53;;;;;;;44.65;28.98;;;;;;;12.37;79.91;102006.56;5034342;28;20103;-70
2022/04/14 06:55:21;;;;;;;43.55;28.52;;;;;;;12.56;79.66;102014.16;5034638;28;20045;-70
2022/04/14 06:57:49;;;;;;;43.75;27.65;;;;;;;12.78;79.33;102016.34;5033888;28;20056;-71
2022/04/14 07:00:18;;;;;;;43.92;27.38;;;;;;;12.95;78.96;102016.00;5034397;28;20137;-70
2022/04/14 07:02:52;;;;;;;50.55;28.42;;;;;;;13.00;78.58;102012.34;5034395;28;20045;-70
2022/04/14 07:05:20;;;;;;;43.90;27.15;;;;;;;13.01;78.11;102007.94;5034556;28;20463;-70
2022/04/14 07:07:47;;;;;;;44.88;27.05;;;;;;;12.95;78.03;102014.25;5034541;28;20045;-70
2022/04/14 07:10:15;;;;;;;46.50;27.10;;;;;;;12.94;78.24;102012.50;5034042;28;20511;-70
2022/04/14 07:12:44;;;;;;;38.90;26.05;;;;;;;12.96;78.14;102016.00;5032566;28;20448;-70
2022/04/14 07:15:12;;;;;;;45.10;27.60;;;;;;;13.02;78.18;102009.69;5033663;28;20054;-70
2022/04/14 07:17:41;;;;;;;43.20;26.67;;;;;;;13.09;77.97;102011.28;5034800;28;20041;-71
2022/04/14 07:20:10;;;;;;;42.05;26.58;;;;;;;13.17;77.87;102013.78;5029992;28;20053;-70
2022/04/14 07:22:46;;;;;;;39.15;26.55;;;;;;;13.27;77.72;102012.66;5034146;28;20073;-71
2022/04/14 07:25:13;;;;;;;37.13;26.23;;;;;;;13.38;77.71;102011.53;5034127;28;20050;-70
2022/04/14 07:27:41;;;;;;;39.17;24.73;;;;;;;13.48;77.53;102007.81;5033783;28;20038;-70
2022/04/14 07:30:09;;;;;;;37.00;24.58;;;;;;;13.62;77.37;102007.47;5033673;28;20041;-70
2022/04/14 07:32:39;;;;;;;39.63;25.00;;;;;;;13.77;77.12;102011.50;5033807;28;20042;-70
2022/04/14 07:35:07;;;;;;;33.92;22.52;;;;;;;13.90;76.65;102004.97;5033417;28;20069;-71
2022/04/14 07:37:36;;;;;;;34.30;22.08;;;;;;;14.02;75.90;102013.50;5033413;28;20046;-69
2022/04/14 07:40:06;;;;;;;34.00;21.52;;;;;;;14.09;75.27;102010.66;5033748;28;20586;-70
2022/04/14 07:42:39;;;;;;;33.83;22.63;;;;;;;14.18;74.03;102017.53;5033730;28;20533;-70
2022/04/14 07:45:09;;;;;;;35.10;21.65;;;;;;;14.20;73.82;102018.31;5033704;28;20064;-69
2022/04/14 07:47:43;;;;;;;41.58;23.10;;;;;;;14.24;73.93;102022.66;5033310;28;20072;-69
2022/04/14 07:50:16;;;;;;;30.65;22.35;;;;;;;14.33;73.25;102028.63;5033056;28;20042;-70
2022/04/14 07:52:56;;;;;;;33.25;22.42;;;;;;;14.39;73.45;102029.31;5033741;28;20053;-70
2022/04/14 07:55:30;;;;;;;34.55;21.25;;;;;;;14.54;73.91;102027.16;5033257;28;20057;-70
2022/04/14 07:58:06;;;;;;;41.88;23.70;;;;;;;14.65;72.76;102021.53;5033455;28;20135;-71
2022/04/14 08:00:36;;;;;;;30.70;22.05;;;;;;;14.74;72.97;102030.16;5033731;28;20423;-69
2022/04/14 08:03:05;;;;;;;31.15;22.80;;;;;;;14.85;72.81;102029.81;5033689;28;20042;-70
2022/04/14 08:05:48;;;;;;;33.80;19.92;;;;;;;14.96;71.97;102029.50;5014059;28;20046;-70
2022/04/14 08:08:18;;;;;;;21.23;16.25;;;;;;;15.03;71.55;102025.75;5013583;28;20047;-70
2022/04/14 08:10:48;;;;;;;23.90;15.90;;;;;;;15.10;67.98;102028.22;5013438;28;20046;-71
2022/04/14 08:13:18;;;;;;;25.92;16.88;;;;;;;15.12;68.31;102031.69;5013348;28;20038;-71
2022/04/14 08:15:45;;;;;;;21.85;14.88;;;;;;;15.17;69.45;102021.78;5013117;28;20057;-69
2022/04/14 08:18:13;;;;;;;19.38;14.48;;;;;;;15.26;68.35;102031.28;5018246;28;20034;-70
2022/04/14 08:20:40;;;;;;;19.10;14.52;;;;;;;15.31;67.88;102024.91;5015620;28;20365;-70
2022/04/14 08:23:12;;;;;;;19.90;14.60;;;;;;;15.36;67.29;102028.28;5013566;28;20034;-69
2022/04/14 08:25:40;;;;;;;21.48;15.02;;;;;;;15.47;67.57;102027.06;5015986;28;20042;-70
2022/04/14 08:28:24;;;;;;;22.75;15.75;;;;;;;15.58;67.77;102016.94;5033134;28;20038;-69
2022/04/14 08:30:54;;;;;;;21.88;14.52;;;;;;;15.69;67.42;102014.81;5033277;28;20148;-70
2022/04/14 08:33:23;;;;;;;19.77;14.25;;;;;;;15.79;66.34;102023.38;5032879;28;20053;-70
2022/04/14 08:35:53;;;;;;;31.65;16.90;;;;;;;15.86;66.33;102020.53;5032998;28;20044;-70
2022/04/14 08:38:22;;;;;;;18.27;14.98;;;;;;;15.93;66.46;102019.38;5033114;28;20129;-70
2022/04/14 08:41:03;;;;;;;35.97;15.07;;;;;;;16.04;66.23;102022.53;5027382;28;20046;-70
2022/04/14 08:44:10;;;;;;;24.58;15.05;;;;;;;16.24;65.43;102026.28;5032525;28;20044;-70
2022/04/14 08:46:40;;;;;;;18.80;12.63;;;;;;;16.35;64.49;102025.94;5033049;28;20045;-70
2022/04/14 08:49:09;;;;;;;18.52;12.60;;;;;;;16.39;64.65;102022.22;5033147;28;20077;-71
2022/04/14 08:51:36;;;;;;;21.95;13.30;;;;;;;16.47;63.47;102025.50;5032485;28;20500;-69
2022/04/14 08:54:05;;;;;;;23.17;12.95;;;;;;;16.53;63.51;102022.59;5032460;28;20069;-70
2022/04/14 08:56:35;;;;;;;20.27;13.38;;;;;;;16.65;64.00;102026.59;5017436;28;20054;-70
2022/04/14 08:59:03;;;;;;;32.58;14.43;;;;;;;16.74;63.76;102020.06;5012720;28;20038;-70
2022/04/14 09:01:31;;;;;;;19.70;12.07;;;;;;;16.87;61.85;102013.34;5012577;28;20039;-71
2022/04/14 09:03:58;;;;;;;29.25;12.00;;;;;;;16.90;61.23;102023.88;5012645;28;20038;-71
2022/04/14 09:06:29;;;;;;;21.48;13.10;;;;;;;16.94;61.35;102015.81;5012833;28;20497;-68
2022/04/14 09:09:00;;;;;;;28.58;13.27;;;;;;;17.03;61.18;102016.34;5015735;28;20041;-69
2022/04/14 09:11:30;;;;;;;29.75;12.40;;;;;;;17.16;60.57;102016.72;5030726;28;20125;-70
2022/04/14 09:14:00;;;;;;;19.98;10.52;;;;;;;17.29;60.68;102018.91;5031971;28;20237;-70
2022/04/14 09:16:30;;;;;;;32.90;12.55;;;;;;;17.23;58.70;102020.00;5031862;28;20084;-69
2022/04/14 09:19:02;;;;;;;22.80;11.63;;;;;;;17.34;60.16;102016.91;5032095;28;20503;-70
2022/04/14 09:21:29;;;;;;;10.90;8.82;;;;;;;17.53;60.12;102014.38;5032202;28;20042;-72
2022/04/14 09:23:57;;;;;;;16.15;8.68;;;;;;;17.57;57.83;102018.63;5032187;28;20118;-70
2022/04/14 09:26:24;;;;;;;13.82;8.52;;;;;;;17.69;57.59;102012.78;5031772;28;20038;-70
2022/04/14 09:29:21;;;;;;;11.50;8.43;;;;;;;17.81;56.41;102005.22;5032105;28;20073;-70
2022/04/14 09:31:51;;;;;;;16.13;8.93;;;;;;;17.89;57.68;102002.22;5023423;28;20054;-70
2022/04/14 09:34:50;;;;;;;14.40;7.35;;;;;;;18.03;55.19;101997.16;5031882;28;20045;-70
2022/04/14 09:37:20;;;;;;;13.88;8.30;;;;;;;18.12;56.58;101996.78;5032359;28;20626;-69
2022/04/14 09:39:57;;;;;;;17.55;8.00;;;;;;;18.22;55.34;102004.38;5031815;28;20088;-70
2022/04/14 09:42:27;;;;;;;11.60;7.93;;;;;;;18.30;52.18;102005.78;5031800;28;20048;-71
2022/04/14 09:44:55;;;;;;;55.90;11.43;;;;;;;18.30;54.24;102004.91;5032047;28;20037;-70
2022/04/14 09:47:43;;;;;;;14.00;7.50;;;;;;;18.41;55.33;101997.31;5031953;28;20042;-71
2022/04/14 09:50:32;;;;;;;14.88;7.90;;;;;;;18.59;54.15;102002.72;5031355;28;20050;-71
2022/04/14 09:53:12;;;;;;;14.98;6.35;;;;;;;18.73;54.03;102005.63;5031707;28;20042;-69
2022/04/14 09:55:55;;;;;;;7.88;5.97;;;;;;;18.83;52.66;101991.81;5030442;28;20478;-70
2022/04/14 09:58:26;;;;;;;9.52;6.43;;;;;;;18.92;53.33;101988.75;5023033;28;20046;-70
2022/04/14 10:00:58;;;;;;;22.15;6.53;;;;;;;18.93;51.27;101975.34;5024774;28;20521;-71
2022/04/14 10:03:29;;;;;;;12.40;6.22;;;;;;;19.04;52.11;101987.31;5034975;28;20143;-70
2022/04/14 10:06:05;;;;;;;8.38;5.35;;;;;;;19.15;50.66;101985.00;5035222;28;20062;-70
2022/04/14 10:08:51;;;;;;;34.97;7.65;;;;;;;19.25;51.28;101977.38;5034729;28;20038;-70
2022/04/14 10:11:25;;;;;;;13.40;4.97;;;;;;;19.42;49.69;101981.03;5035128;28;20504;-72
2022/04/14 10:13:52;;;;;;;12.10;5.15;;;;;;;19.54;50.17;101977.72;5014836;28;20066;-70
2022/04/14 10:16:25;;;;;;;12.65;5.15;;;;;;;19.60;48.50;101961.41;5015378;28;20046;-70
2022/04/14 10:18:54;;;;;;;25.05;5.95;;;;;;;19.67;48.73;101964.63;5024441;28;20041;-71
2022/04/14 10:21:21;;;;;;;10.10;4.32;;;;;;;19.77;49.63;101963.22;5034864;28;20065;-70
2022/04/14 10:23:49;;;;;;;10.18;4.20;;;;;;;19.91;49.44;101961.66;5034673;28;20076;-70
2022/04/14 10:26:19;;;;;;;12.45;4.63;;;;;;;20.02;46.44;101968.19;5033003;28;20239;-71
2022/04/14 10:28:49;;;;;;;12.68;4.40;;;;;;;19.93;46.83;101971.34;5031752;28;20056;-71
2022/04/14 10:31:19;;;;;;;5.50;2.95;;;;;;;19.93;44.26;101975.81;5032766;28;20116;-70
2022/04/14 10:33:48;;;;;;;13.65;3.53;;;;;;;19.94;45.20;101981.06;5034538;28;20124;-71
2022/04/14 10:36:15;;;;;;;8.38;3.60;;;;;;;20.00;45.45;101986.13;5033902;28;20488;-71
2022/04/14 10:38:49;;;;;;;8.18;3.60;;;;;;;20.11;44.65;101990.06;5033659;28;20046;-71
2022/04/14 10:41:25;;;;;;;7.72;3.65;;;;;;;20.22;45.46;101995.72;5014746;28;20501;-70
2022/04/14 10:44:00;;;;;;;5.20;3.83;;;;;;;20.39;44.45;101997.50;5014695;28;20038;-70
2022/04/14 10:46:36;;;;;;;5.65;3.70;;;;;;;20.44;45.01;101997.25;5030780;28;20065;-71
2022/04/14 10:49:13;;;;;;;8.88;4.03;;;;;;;20.58;45.11;101983.09;5034605;28;20050;-71
2022/04/14 10:51:43;;;;;;;4.65;3.40;;;;;;;20.67;43.82;101981.72;5034198;28;20048;-71
2022/04/14 10:54:12;;;;;;;6.72;4.10;;;;;;;20.83;44.00;101989.78;5027265;28;20109;-71
2022/04/14 10:56:42;;;;;;;26.83;5.43;;;;;;;20.89;43.68;101984.97;5032931;28;20085;-70
2022/04/14 10:59:19;;;;;;;13.05;4.30;;;;;;;21.03;43.77;101978.81;5034030;28;20053;-70
2022/04/14 11:01:55;;;;;;;7.63;3.10;;;;;;;21.12;39.84;101995.31;5034080;28;20519;-71
2022/04/14 11:04:31;;;;;;;13.65;2.90;;;;;;;21.02;39.95;101997.69;5034250;28;20373;-69
2022/04/14 11:07:11;;;;;;;15.98;3.03;;;;;;;21.28;41.82;101987.28;5034264;28;20085;-71
2022/04/14 11:09:50;;;;;;;6.13;2.92;;;;;;;21.60;41.43;101981.88;5034014;28;20045;-71
2022/04/14 11:12:19;;;;;;;6.78;3.17;;;;;;;21.81;40.62;101983.28;5033122;28;20075;-72
2022/04/14 11:14:53;;;;;;;8.43;2.80;;;;;;;21.94;40.52;101980.72;5032896;28;20482;-70
2022/04/14 11:17:37;;;;;;;8.90;3.10;;;;;;;22.03;37.91;101985.53;5033904;28;20033;-70
2022/04/14 11:20:48;;;;;;;21.83;4.03;;;;;;;22.16;40.00;101991.03;5034310;28;20064;-71